Monmouth, Kansas
Current Conditions -  °F | °C
As of 5:55 AM on Sunday 25 Jan 2015 (Local Time) from KPTS Reporting Station
Scattered Clouds Scattered Clouds  
Wind Chill: 51°   Ceiling: Unl
Heat Index: 51°   Visibility: 10mi
Dew Point: 40°   Wind: 8mph
Humidity: 67%   Direction: 310°NW
Pressure: 29.71"   Gusts: NA
Location:  37.3318°N, 95.0213°W
Report Text: KPTS 251155Z AUTO 31007KT 10SM SCT055 SCT075 SCT090 11/05 A2971 RMK AO2 T01050045
Loading
Personal Weather Stations






























Interactive Weather Map New forecast layout! Learn more

10-Day Weather Forecast

Advertisements
Track Severe Weather on mobile